createdAt,value
2023-05-22T00:01:53.330Z,12.15
2023-05-22T00:03:56.389Z,12.08
2023-05-22T00:06:00.706Z,11.86
2023-05-22T00:08:05.153Z,11.82
2023-05-22T00:10:08.536Z,11.86
2023-05-22T00:12:11.777Z,11.87
2023-05-22T00:14:16.542Z,11.86
2023-05-22T00:16:19.571Z,11.88
2023-05-22T00:18:23.042Z,11.86
2023-05-22T00:20:26.624Z,11.85
2023-05-22T00:22:31.847Z,11.85
2023-05-22T00:24:34.812Z,11.85
2023-05-22T00:26:37.886Z,11.81
2023-05-22T00:28:40.955Z,11.80
2023-05-22T00:30:46.098Z,11.78
2023-05-22T00:32:49.351Z,11.75
2023-05-22T00:34:52.556Z,11.73
2023-05-22T00:36:55.646Z,11.68
2023-05-22T00:38:58.605Z,11.67
2023-05-22T00:41:02.112Z,11.65
2023-05-22T00:43:09.030Z,11.63
2023-05-22T00:45:13.427Z,11.60
2023-05-22T00:47:17.921Z,11.57
2023-05-22T00:49:21.069Z,11.57
2023-05-22T00:51:25.241Z,11.49
2023-05-22T00:53:30.806Z,11.49
2023-05-22T00:55:34.607Z,11.49
2023-05-22T00:57:42.203Z,11.46
2023-05-22T00:59:45.524Z,11.43
2023-05-22T01:01:48.602Z,11.39
2023-05-22T01:03:54.130Z,11.37
2023-05-22T01:05:56.807Z,11.34
2023-05-22T01:07:59.783Z,11.34
2023-05-22T01:10:02.705Z,11.30
2023-05-22T01:12:17.713Z,11.24
2023-05-22T01:14:30.353Z,11.22
2023-05-22T01:16:39.957Z,11.13
2023-05-22T01:18:47.103Z,11.10
2023-05-22T01:20:58.503Z,11.09
2023-05-22T01:23:49.109Z,10.97
2023-05-22T01:26:32.346Z,10.91
2023-05-22T01:28:49.193Z,10.86
2023-05-22T01:31:02.499Z,10.86
2023-05-22T01:33:09.021Z,10.90
2023-05-22T01:35:14.934Z,10.88
2023-05-22T01:37:20.196Z,10.87
2023-05-22T01:39:26.119Z,10.81
2023-05-22T01:41:30.115Z,10.78
2023-05-22T01:43:33.247Z,10.77
2023-05-22T01:45:36.692Z,10.75
2023-05-22T01:47:41.222Z,10.73
2023-05-22T01:49:45.045Z,10.68
2023-05-22T01:51:56.251Z,10.60
2023-05-22T01:54:06.473Z,10.52
2023-05-22T01:56:15.028Z,10.55
2023-05-22T01:58:32.976Z,10.53
2023-05-22T02:00:37.986Z,10.48
2023-05-22T02:02:45.487Z,10.47
2023-05-22T02:04:56.317Z,10.44
2023-05-22T02:07:03.001Z,10.41
2023-05-22T02:09:07.548Z,10.37
2023-05-22T02:11:16.998Z,10.36
2023-05-22T02:13:20.188Z,10.34
2023-05-22T02:15:23.287Z,10.30
2023-05-22T02:17:26.459Z,10.29
2023-05-22T02:19:31.090Z,10.22
2023-05-22T02:21:34.522Z,10.20
2023-05-22T02:23:38.274Z,10.16
2023-05-22T02:25:41.587Z,10.15
2023-05-22T02:27:45.402Z,10.14
2023-05-22T02:29:48.543Z,10.14
2023-05-22T02:31:54.801Z,10.13
2023-05-22T02:33:57.768Z,10.13
2023-05-22T02:36:02.718Z,10.11
2023-05-22T02:38:06.906Z,10.08
2023-05-22T02:40:11.175Z,10.06
2023-05-22T02:42:15.163Z,9.78
2023-05-22T02:44:18.243Z,9.72
2023-05-22T02:46:21.289Z,9.79
2023-05-22T02:48:24.643Z,9.88
2023-05-22T02:50:28.055Z,9.91
2023-05-22T02:52:32.500Z,9.94
2023-05-22T02:54:35.467Z,9.96
2023-05-22T02:56:38.497Z,9.95
2023-05-22T02:58:41.455Z,9.91
2023-05-22T03:00:44.701Z,9.87
2023-05-22T03:02:47.732Z,9.69
2023-05-22T03:04:51.897Z,9.72
2023-05-22T03:06:55.117Z,9.77
2023-05-22T03:08:59.813Z,9.78
2023-05-22T03:11:03.170Z,9.68
2023-05-22T03:13:06.390Z,9.71
2023-05-22T03:15:10.755Z,9.71
2023-05-22T03:17:15.465Z,9.77
2023-05-22T03:19:18.593Z,9.77
2023-05-22T03:21:21.585Z,9.78
2023-05-22T03:23:25.770Z,9.77
2023-05-22T03:25:31.029Z,9.68
2023-05-22T03:27:34.036Z,9.65
2023-05-22T03:29:37.841Z,9.76
2023-05-22T03:31:41.164Z,9.77
2023-05-22T03:33:47.304Z,9.81
2023-05-22T03:35:50.540Z,9.86
2023-05-22T03:37:53.779Z,9.89
2023-05-22T03:39:56.773Z,9.86
2023-05-22T03:42:07.729Z,9.92
2023-05-22T03:44:12.427Z,9.91
2023-05-22T03:46:15.754Z,9.88
2023-05-22T03:48:18.782Z,10.01
2023-05-22T03:50:22.031Z,10.08
2023-05-22T03:52:25.698Z,10.06
2023-05-22T03:54:28.722Z,10.05
2023-05-22T03:56:32.627Z,10.12
2023-05-22T03:58:37.127Z,10.20
2023-05-22T04:00:42.917Z,10.24
2023-05-22T04:02:47.188Z,10.27
2023-05-22T04:04:50.923Z,10.25
2023-05-22T04:06:54.669Z,10.28
2023-05-22T04:08:57.595Z,10.33
2023-05-22T04:11:00.902Z,10.37
2023-05-22T04:13:03.952Z,10.40
2023-05-22T04:15:09.815Z,10.40
2023-05-22T04:17:12.809Z,10.51
2023-05-22T04:19:15.902Z,10.58
2023-05-22T04:21:19.445Z,10.67
2023-05-22T04:23:23.054Z,10.73
2023-05-22T04:25:27.566Z,10.84
2023-05-22T04:27:30.650Z,11.00
2023-05-22T04:29:36.586Z,11.07
2023-05-22T04:31:41.528Z,11.13
2023-05-22T04:33:48.591Z,11.19
2023-05-22T04:35:51.675Z,11.26
2023-05-22T04:37:56.462Z,11.31
2023-05-22T04:40:06.573Z,11.39
2023-05-22T04:42:09.765Z,11.48
2023-05-22T04:44:12.937Z,11.55
2023-05-22T04:46:16.585Z,11.65
2023-05-22T04:48:21.499Z,11.73
2023-05-22T04:50:24.456Z,11.81
2023-05-22T04:52:27.522Z,11.88
2023-05-22T04:54:30.453Z,11.91
2023-05-22T04:56:36.886Z,12.00
2023-05-22T04:58:40.833Z,12.11
2023-05-22T05:00:43.932Z,12.19
2023-05-22T05:02:47.778Z,12.24
2023-05-22T05:04:53.480Z,12.28
2023-05-22T05:06:57.929Z,12.32
2023-05-22T05:09:02.416Z,12.33
2023-05-22T05:11:05.864Z,12.39
2023-05-22T05:13:08.998Z,12.44
2023-05-22T05:15:14.984Z,12.49
2023-05-22T05:17:18.873Z,12.58
2023-05-22T05:19:21.887Z,12.67
2023-05-22T05:21:28.270Z,12.73
2023-05-22T05:23:35.190Z,12.87
2023-05-22T05:25:39.092Z,12.98
2023-05-22T05:27:43.070Z,13.14
2023-05-22T05:29:47.110Z,13.22
2023-05-22T05:31:58.118Z,13.35
2023-05-22T05:34:13.858Z,13.47
2023-05-22T05:36:41.923Z,13.61
2023-05-22T05:38:45.003Z,13.77
2023-05-22T05:40:50.036Z,13.88
2023-05-22T05:42:53.336Z,14.17
2023-05-22T05:45:00.717Z,14.35
2023-05-22T05:47:07.024Z,14.80
2023-05-22T05:49:11.605Z,14.90
2023-05-22T05:51:16.568Z,15.03
2023-05-22T05:53:21.804Z,15.17
2023-05-22T05:55:30.795Z,15.14
2023-05-22T05:57:35.020Z,15.58
2023-05-22T05:59:38.250Z,15.75
2023-05-22T06:01:56.276Z,16.35
2023-05-22T06:04:04.461Z,17.53
2023-05-22T06:06:09.546Z,17.78
2023-05-22T06:08:43.009Z,17.64
2023-05-22T06:10:47.292Z,17.84
2023-05-22T06:12:53.150Z,18.92
2023-05-22T06:14:56.275Z,18.96
2023-05-22T06:16:59.302Z,18.79
2023-05-22T06:19:02.894Z,19.41
2023-05-22T06:21:06.247Z,19.11
2023-05-22T06:23:10.247Z,19.46
2023-05-22T06:25:14.673Z,19.63
2023-05-22T06:27:17.727Z,20.68
2023-05-22T06:29:21.534Z,21.84
2023-05-22T06:31:26.491Z,20.36
2023-05-22T06:33:32.435Z,21.28
2023-05-22T06:35:36.042Z,20.11
2023-05-22T06:37:39.270Z,20.20
2023-05-22T06:39:42.577Z,20.49
2023-05-22T06:41:55.500Z,20.78
2023-05-22T06:43:58.790Z,21.72
2023-05-22T06:46:05.862Z,22.00
2023-05-22T06:48:17.439Z,22.27
2023-05-22T06:50:35.151Z,22.78
2023-05-22T06:52:39.480Z,23.21
2023-05-22T06:54:45.440Z,22.45
2023-05-22T06:56:51.177Z,21.25
2023-05-22T06:58:56.513Z,21.55
2023-05-22T07:01:08.180Z,21.43
2023-05-22T07:03:16.917Z,22.13
2023-05-22T07:05:40.211Z,22.29
2023-05-22T07:07:43.848Z,21.19
2023-05-22T07:09:47.099Z,21.80
2023-05-22T07:11:50.348Z,21.83
2023-05-22T07:13:53.318Z,23.33
2023-05-22T07:15:58.236Z,23.95
2023-05-22T07:18:01.492Z,24.01
2023-05-22T07:20:05.860Z,24.65
2023-05-22T07:22:11.117Z,24.12
2023-05-22T07:24:16.176Z,22.83
2023-05-22T07:26:20.358Z,23.25
2023-05-22T07:28:31.608Z,24.38
2023-05-22T07:30:44.678Z,23.20
2023-05-22T07:32:49.318Z,22.77
2023-05-22T07:34:52.855Z,22.64
2023-05-22T07:36:55.748Z,23.58
2023-05-22T07:38:58.878Z,22.98
2023-05-22T07:41:04.981Z,23.15
2023-05-22T07:43:09.864Z,23.65
2023-05-22T07:45:12.928Z,23.00
2023-05-22T07:47:16.250Z,23.36
2023-05-22T07:49:22.415Z,23.62
2023-05-22T07:51:26.750Z,23.45
2023-05-22T07:53:29.905Z,23.44
2023-05-22T07:55:35.685Z,22.74
2023-05-22T07:57:39.236Z,23.27
2023-05-22T07:59:51.119Z,24.61
2023-05-22T08:01:54.214Z,24.66
2023-05-22T08:03:57.485Z,24.56
2023-05-22T08:06:02.082Z,24.23
2023-05-22T08:08:05.405Z,23.86
2023-05-22T08:10:15.050Z,23.83
2023-05-22T08:12:18.065Z,23.43
2023-05-22T08:14:22.238Z,23.77
2023-05-22T08:16:25.337Z,23.77
2023-05-22T08:18:29.775Z,24.44
2023-05-22T08:20:33.935Z,24.78
2023-05-22T08:22:39.755Z,24.66
2023-05-22T08:24:42.821Z,24.93
2023-05-22T08:26:45.992Z,24.91
2023-05-22T08:28:48.996Z,24.68
2023-05-22T08:30:52.377Z,24.73
2023-05-22T08:32:55.883Z,24.83
2023-05-22T08:34:59.848Z,23.88
2023-05-22T08:37:02.914Z,24.32
2023-05-22T08:39:09.029Z,24.70
2023-05-22T08:41:13.200Z,23.62
2023-05-22T08:43:16.492Z,23.86
2023-05-22T08:45:20.169Z,23.91
2023-05-22T08:47:27.135Z,23.67
2023-05-22T08:49:31.281Z,23.98
2023-05-22T08:51:36.070Z,23.75
2023-05-22T08:53:41.133Z,24.56
2023-05-22T08:55:46.050Z,24.80
2023-05-22T08:57:50.540Z,24.49
2023-05-22T08:59:54.092Z,24.42
2023-05-22T09:01:58.423Z,24.28
2023-05-22T09:04:02.472Z,24.15
2023-05-22T09:06:09.669Z,24.78
2023-05-22T09:08:20.534Z,24.93
2023-05-22T09:10:24.407Z,25.00
2023-05-22T09:12:28.823Z,24.93
2023-05-22T09:14:39.565Z,25.15
2023-05-22T09:16:47.354Z,25.18
2023-05-22T09:18:50.925Z,24.82
2023-05-22T09:20:54.067Z,25.43
2023-05-22T09:22:57.305Z,25.18
2023-05-22T09:25:00.174Z,25.09
2023-05-22T09:27:04.503Z,24.75
2023-05-22T09:29:09.485Z,25.18
2023-05-22T09:31:12.851Z,25.33
2023-05-22T09:33:17.427Z,24.59
2023-05-22T09:35:21.262Z,24.96
2023-05-22T09:37:24.294Z,24.67
2023-05-22T09:39:38.486Z,24.48
2023-05-22T09:41:41.615Z,24.35
2023-05-22T09:43:51.550Z,24.67
2023-05-22T09:46:02.287Z,24.15
2023-05-22T09:48:06.367Z,24.82
2023-05-22T09:50:11.119Z,24.82
2023-05-22T09:52:14.255Z,24.95
2023-05-22T09:54:19.197Z,24.51
2023-05-22T09:56:37.860Z,24.56
2023-05-22T09:58:45.368Z,25.19
2023-05-22T10:00:50.291Z,24.70
2023-05-22T10:03:03.734Z,24.52
2023-05-22T10:05:09.784Z,25.29
2023-05-22T10:07:14.211Z,25.57
2023-05-22T10:09:19.768Z,25.47
2023-05-22T10:11:24.075Z,25.62
2023-05-22T10:13:28.318Z,24.53
2023-05-22T10:15:32.554Z,24.84
2023-05-22T10:17:37.192Z,25.18
2023-05-22T10:19:43.938Z,25.21
2023-05-22T10:21:50.198Z,25.60
2023-05-22T10:23:53.976Z,24.97
2023-05-22T10:25:58.059Z,25.47
2023-05-22T10:28:01.527Z,25.16
2023-05-22T10:30:21.280Z,24.76
2023-05-22T10:32:48.450Z,25.00
2023-05-22T10:35:02.471Z,25.31
2023-05-22T10:37:31.687Z,25.04
2023-05-22T10:39:43.608Z,25.91
2023-05-22T10:41:47.198Z,25.62
2023-05-22T10:43:51.262Z,25.42
2023-05-22T10:46:03.532Z,25.10
2023-05-22T10:48:07.714Z,24.49
2023-05-22T10:50:13.022Z,24.53
2023-05-22T10:52:18.879Z,24.91
2023-05-22T10:54:39.599Z,24.97
2023-05-22T10:56:42.652Z,24.26
2023-05-22T10:58:56.945Z,24.30
2023-05-22T11:01:13.049Z,25.08
2023-05-22T11:03:18.401Z,24.86
2023-05-22T11:05:39.091Z,24.64
2023-05-22T11:07:42.082Z,24.30
2023-05-22T11:09:48.113Z,24.83
2023-05-22T11:12:18.402Z,24.61
2023-05-22T11:14:21.390Z,24.55
2023-05-22T11:16:24.477Z,24.43
2023-05-22T11:18:29.878Z,24.27
2023-05-22T11:20:40.482Z,24.47
2023-05-22T11:22:45.519Z,24.64
2023-05-22T11:24:49.216Z,25.12
2023-05-22T11:27:03.837Z,25.08
2023-05-22T11:29:09.103Z,24.96
2023-05-22T11:31:12.245Z,24.84
2023-05-22T11:33:15.748Z,25.05
2023-05-22T11:35:20.245Z,24.93
2023-05-22T11:37:24.973Z,25.47
2023-05-22T11:39:28.159Z,25.57
2023-05-22T11:41:33.941Z,25.83
2023-05-22T11:43:37.873Z,25.14
2023-05-22T11:45:41.000Z,25.25
2023-05-22T11:47:45.059Z,25.59
2023-05-22T11:49:48.044Z,24.74
2023-05-22T11:51:52.181Z,24.92
2023-05-22T11:53:57.702Z,24.78
2023-05-22T11:56:04.629Z,25.06
2023-05-22T11:58:07.547Z,24.59
2023-05-22T12:00:12.584Z,24.72
2023-05-22T12:02:16.945Z,24.53
2023-05-22T12:04:19.965Z,25.03
2023-05-22T12:06:23.274Z,25.18
2023-05-22T12:08:26.866Z,24.71
2023-05-22T12:10:32.318Z,25.06
2023-05-22T12:12:35.425Z,25.46
2023-05-22T12:14:38.935Z,25.38
2023-05-22T12:16:42.128Z,25.25
2023-05-22T12:18:45.130Z,25.28
2023-05-22T12:20:48.185Z,25.33
2023-05-22T12:22:51.272Z,24.96
2023-05-22T12:24:54.309Z,25.58
2023-05-22T12:26:58.761Z,25.17
2023-05-22T12:29:01.946Z,25.59
2023-05-22T12:31:05.217Z,25.41
2023-05-22T12:33:14.384Z,25.24
2023-05-22T12:35:17.878Z,25.49
2023-05-22T12:37:22.340Z,25.65
2023-05-22T12:39:25.806Z,25.56
2023-05-22T12:41:29.005Z,26.05
2023-05-22T12:43:33.465Z,25.37
2023-05-22T12:45:36.597Z,25.11
2023-05-22T12:47:39.729Z,24.79
2023-05-22T12:49:42.771Z,25.30
2023-05-22T12:51:46.030Z,24.43
2023-05-22T12:53:49.209Z,24.61
2023-05-22T12:55:52.072Z,24.67
2023-05-22T12:57:55.156Z,24.35
2023-05-22T12:59:59.620Z,24.96
2023-05-22T13:02:03.659Z,25.15
2023-05-22T13:04:06.756Z,25.05
2023-05-22T13:06:09.885Z,25.08
2023-05-22T13:08:12.866Z,24.87
2023-05-22T13:10:16.083Z,24.80
2023-05-22T13:12:19.863Z,25.00
2023-05-22T13:14:22.982Z,25.37
2023-05-22T13:16:27.628Z,25.21
2023-05-22T13:18:30.949Z,25.16
2023-05-22T13:20:36.333Z,24.82
2023-05-22T13:22:39.034Z,24.89
2023-05-22T13:24:42.146Z,24.25
2023-05-22T13:26:45.072Z,23.61
2023-05-22T13:28:48.001Z,23.25
2023-05-22T13:30:51.039Z,23.22
2023-05-22T13:32:55.966Z,23.61
2023-05-22T13:34:59.136Z,23.79
2023-05-22T13:37:02.110Z,23.71
2023-05-22T13:39:05.226Z,23.49
2023-05-22T13:41:08.096Z,23.60
2023-05-22T13:43:11.336Z,23.96
2023-05-22T13:45:14.754Z,24.09
2023-05-22T13:47:18.255Z,24.21
2023-05-22T13:49:22.823Z,24.35
2023-05-22T13:51:25.816Z,24.23
2023-05-22T13:53:28.834Z,24.31
2023-05-22T13:55:32.130Z,24.45
2023-05-22T13:57:35.276Z,24.33
2023-05-22T13:59:38.310Z,24.45
2023-05-22T14:01:41.592Z,24.92
2023-05-22T14:03:45.058Z,24.83
2023-05-22T14:05:49.691Z,24.46
2023-05-22T14:07:52.740Z,24.40
2023-05-22T14:09:55.686Z,24.47
2023-05-22T14:11:58.726Z,24.84
2023-05-22T14:14:01.745Z,24.63
2023-05-22T14:16:05.001Z,24.62
2023-05-22T14:18:08.138Z,24.96
2023-05-22T14:20:11.975Z,24.89
2023-05-22T14:22:16.349Z,24.72
2023-05-22T14:24:19.304Z,24.54
2023-05-22T14:26:22.628Z,24.41
2023-05-22T14:28:26.379Z,23.97
2023-05-22T14:30:29.305Z,24.06
2023-05-22T14:32:32.334Z,24.36
2023-05-22T14:34:35.218Z,24.50
2023-05-22T14:36:38.264Z,24.03
2023-05-22T14:38:42.793Z,24.02
2023-05-22T14:40:46.052Z,23.99
2023-05-22T14:42:49.553Z,23.68
2023-05-22T14:44:53.282Z,23.69
2023-05-22T14:46:56.227Z,23.88
2023-05-22T14:48:59.493Z,23.66
2023-05-22T14:51:02.446Z,23.81
2023-05-22T14:53:05.345Z,23.65
2023-05-22T14:55:10.494Z,23.65
2023-05-22T14:57:13.428Z,23.86
2023-05-22T14:59:16.553Z,23.72
2023-05-22T15:01:19.717Z,23.57
2023-05-22T15:03:23.904Z,23.48
2023-05-22T15:05:27.254Z,23.14
2023-05-22T15:07:43.150Z,23.47
2023-05-22T15:09:47.385Z,23.58
2023-05-22T15:11:51.858Z,23.35
2023-05-22T15:13:54.860Z,23.22
2023-05-22T15:15:58.737Z,23.09
2023-05-22T15:18:05.045Z,23.17
2023-05-22T15:20:09.606Z,23.30
2023-05-22T15:22:19.348Z,23.03
2023-05-22T15:24:22.995Z,23.04
2023-05-22T15:26:26.008Z,22.94
2023-05-22T15:28:30.378Z,22.81
2023-05-22T15:30:39.095Z,22.63
2023-05-22T15:32:42.049Z,22.73
2023-05-22T15:34:45.028Z,22.53
2023-05-22T15:36:47.920Z,22.73
2023-05-22T15:38:51.237Z,22.65
2023-05-22T15:40:54.104Z,22.75
2023-05-22T15:42:57.219Z,22.70
2023-05-22T15:45:01.740Z,22.85
2023-05-22T15:47:04.799Z,22.75
2023-05-22T15:49:07.801Z,22.78
2023-05-22T15:51:11.175Z,22.78
2023-05-22T15:53:14.202Z,22.95
2023-05-22T15:55:17.339Z,22.63
2023-05-22T15:57:20.477Z,22.60
2023-05-22T15:59:23.765Z,22.47
2023-05-22T16:01:29.918Z,22.50
2023-05-22T16:03:33.302Z,22.64
2023-05-22T16:05:37.021Z,22.63
2023-05-22T16:07:39.997Z,22.42
2023-05-22T16:09:43.718Z,22.21
2023-05-22T16:11:46.810Z,22.10
2023-05-22T16:13:49.881Z,21.99
2023-05-22T16:15:53.006Z,22.09
2023-05-22T16:17:57.781Z,22.03
2023-05-22T16:20:01.027Z,21.99
2023-05-22T16:22:04.487Z,21.79
2023-05-22T16:24:07.629Z,21.90
2023-05-22T16:26:10.513Z,21.98
2023-05-22T16:28:13.784Z,22.02
2023-05-22T16:30:17.646Z,22.05
2023-05-22T16:32:21.001Z,21.98
2023-05-22T16:34:25.674Z,21.79
2023-05-22T16:36:28.678Z,21.81
2023-05-22T16:38:31.575Z,21.53
2023-05-22T16:40:34.583Z,21.63
2023-05-22T16:42:38.642Z,21.81
2023-05-22T16:44:41.637Z,21.65
2023-05-22T16:46:44.649Z,21.64
2023-05-22T16:48:48.058Z,21.72
2023-05-22T16:50:52.739Z,21.55
2023-05-22T16:52:55.737Z,21.55
2023-05-22T16:54:58.598Z,21.59
2023-05-22T16:57:02.188Z,21.59
2023-05-22T16:59:05.517Z,21.48
2023-05-22T17:01:08.718Z,21.43
2023-05-22T17:03:12.303Z,21.37
2023-05-22T17:05:15.717Z,21.38
2023-05-22T17:07:20.037Z,21.35
2023-05-22T17:09:23.027Z,21.22
2023-05-22T17:11:26.692Z,21.13
2023-05-22T17:13:29.797Z,21.00
2023-05-22T17:15:32.828Z,21.07
2023-05-22T17:17:35.949Z,20.65
2023-05-22T17:19:39.443Z,20.63
2023-05-22T17:21:43.583Z,20.65
2023-05-22T17:23:48.004Z,20.43
2023-05-22T17:25:51.662Z,20.33
2023-05-22T17:27:54.606Z,20.36
2023-05-22T17:29:57.905Z,20.36
2023-05-22T17:32:00.983Z,20.31
2023-05-22T17:34:04.896Z,20.27
2023-05-22T17:36:07.950Z,20.20
2023-05-22T17:38:11.018Z,20.12
2023-05-22T17:40:15.734Z,20.17
2023-05-22T17:42:19.187Z,20.12
2023-05-22T17:44:22.235Z,20.15
2023-05-22T17:46:26.960Z,20.07
2023-05-22T17:48:29.944Z,19.92
2023-05-22T17:50:32.927Z,19.82
2023-05-22T17:52:36.445Z,19.58
2023-05-22T17:54:39.415Z,19.55
2023-05-22T17:56:43.953Z,19.37
2023-05-22T17:58:46.926Z,19.27
2023-05-22T18:00:50.082Z,19.09
2023-05-22T18:02:53.551Z,18.96
2023-05-22T18:04:56.608Z,18.92
2023-05-22T18:07:00.203Z,18.89
2023-05-22T18:09:04.721Z,18.48
2023-05-22T18:11:07.812Z,18.54
2023-05-22T18:13:12.256Z,18.60
2023-05-22T18:15:15.426Z,18.59
2023-05-22T18:17:18.541Z,18.53
2023-05-22T18:19:21.886Z,18.43
2023-05-22T18:21:24.943Z,18.41
2023-05-22T18:23:28.075Z,18.35
2023-05-22T18:25:31.166Z,18.25
2023-05-22T18:27:34.278Z,18.04
2023-05-22T18:29:39.856Z,18.03
2023-05-22T18:31:43.453Z,17.95
2023-05-22T18:33:46.667Z,17.92
2023-05-22T18:35:49.723Z,17.88
2023-05-22T18:37:52.756Z,17.78
2023-05-22T18:39:55.901Z,17.78
2023-05-22T18:41:58.988Z,17.72
2023-05-22T18:44:02.011Z,17.59
2023-05-22T18:46:06.340Z,17.49
2023-05-22T18:48:09.388Z,17.41
2023-05-22T18:50:13.250Z,17.35
2023-05-22T18:52:16.240Z,17.24
2023-05-22T18:54:19.142Z,17.21
2023-05-22T18:56:22.180Z,17.11
2023-05-22T18:58:25.090Z,17.04
2023-05-22T19:00:28.702Z,16.96
2023-05-22T19:02:33.209Z,16.90
2023-05-22T19:04:36.302Z,16.80
2023-05-22T19:06:42.436Z,16.77
2023-05-22T19:08:45.533Z,16.71
2023-05-22T19:10:48.363Z,16.52
2023-05-22T19:12:51.234Z,16.51
2023-05-22T19:14:54.194Z,16.39
2023-05-22T19:16:59.663Z,16.27
2023-05-22T19:19:03.888Z,16.15
2023-05-22T19:21:06.922Z,15.95
2023-05-22T19:23:11.659Z,15.81
2023-05-22T19:25:14.629Z,15.74
2023-05-22T19:27:18.418Z,15.73
2023-05-22T19:29:21.455Z,15.65
2023-05-22T19:31:24.236Z,15.37
2023-05-22T19:33:27.956Z,15.42
2023-05-22T19:35:32.406Z,15.39
2023-05-22T19:37:35.378Z,15.40
2023-05-22T19:39:38.739Z,15.27
2023-05-22T19:41:41.712Z,15.03
2023-05-22T19:43:45.054Z,14.89
2023-05-22T19:45:48.175Z,14.97
2023-05-22T19:47:51.224Z,15.00
2023-05-22T19:49:54.245Z,14.97
2023-05-22T19:51:59.804Z,14.96
2023-05-22T19:54:02.726Z,14.93
2023-05-22T19:56:06.086Z,14.88
2023-05-22T19:58:09.139Z,14.63
2023-05-22T20:00:13.247Z,14.45
2023-05-22T20:02:16.321Z,14.30
2023-05-22T20:04:19.274Z,14.24
2023-05-22T20:06:22.427Z,14.31
2023-05-22T20:08:27.111Z,14.05
2023-05-22T20:10:31.627Z,13.82
2023-05-22T20:12:34.960Z,13.86
2023-05-22T20:14:38.390Z,13.99
2023-05-22T20:16:41.598Z,14.01
2023-05-22T20:18:45.240Z,13.87
2023-05-22T20:20:48.350Z,13.71
2023-05-22T20:22:53.051Z,13.67
2023-05-22T20:24:57.400Z,13.73
2023-05-22T20:27:01.715Z,13.62
2023-05-22T20:29:04.676Z,13.37
2023-05-22T20:31:07.654Z,13.30
2023-05-22T20:33:12.183Z,13.38
2023-05-22T20:35:18.978Z,13.29
2023-05-22T20:37:22.205Z,13.36
2023-05-22T20:39:26.729Z,13.16
2023-05-22T20:41:31.995Z,13.02
2023-05-22T20:43:35.188Z,12.99
2023-05-22T20:45:38.550Z,13.05
2023-05-22T20:47:41.764Z,13.03
2023-05-22T20:49:44.649Z,13.08
2023-05-22T20:51:47.644Z,13.09
2023-05-22T20:53:53.195Z,13.10
2023-05-22T20:55:57.779Z,12.90
2023-05-22T20:58:02.278Z,12.80
2023-05-22T21:00:08.836Z,12.82
2023-05-22T21:02:12.175Z,12.82
2023-05-22T21:04:15.193Z,12.46
2023-05-22T21:06:18.978Z,12.37
2023-05-22T21:08:21.996Z,12.53
2023-05-22T21:10:24.967Z,12.66
2023-05-22T21:12:28.055Z,12.41
2023-05-22T21:14:32.436Z,12.44
2023-05-22T21:16:37.607Z,12.53
2023-05-22T21:18:42.148Z,12.57
2023-05-22T21:20:45.086Z,12.53
2023-05-22T21:22:48.517Z,12.27
2023-05-22T21:24:51.607Z,12.40
2023-05-22T21:26:54.596Z,12.45
2023-05-22T21:28:57.627Z,12.45
2023-05-22T21:31:02.123Z,12.37
2023-05-22T21:33:05.359Z,12.24
2023-05-22T21:35:09.316Z,12.25
2023-05-22T21:37:12.268Z,12.29
2023-05-22T21:39:15.198Z,12.33
2023-05-22T21:41:18.467Z,12.33
2023-05-22T21:43:21.406Z,12.26
2023-05-22T21:45:24.469Z,12.11
2023-05-22T21:47:28.905Z,12.15
2023-05-22T21:49:31.928Z,12.15
2023-05-22T21:51:34.756Z,12.13
2023-05-22T21:53:37.758Z,12.01
2023-05-22T21:55:40.710Z,11.97
2023-05-22T21:57:45.799Z,11.84
2023-05-22T21:59:49.054Z,11.89
2023-05-22T22:01:52.177Z,11.93
2023-05-22T22:03:56.704Z,11.94
2023-05-22T22:06:00.189Z,11.98
2023-05-22T22:08:03.147Z,11.88
2023-05-22T22:10:07.185Z,11.86
2023-05-22T22:12:10.195Z,11.86
2023-05-22T22:14:13.124Z,11.85
2023-05-22T22:16:16.971Z,11.86
2023-05-22T22:18:19.952Z,11.74
2023-05-22T22:20:43.293Z,11.53
2023-05-22T22:22:47.442Z,11.62
2023-05-22T22:24:50.332Z,11.64
2023-05-22T22:26:53.352Z,11.61
2023-05-22T22:28:56.511Z,11.55
2023-05-22T22:30:59.607Z,11.51
2023-05-22T22:33:02.725Z,11.51
2023-05-22T22:35:06.942Z,11.48
2023-05-22T22:37:11.515Z,11.42
2023-05-22T22:39:14.658Z,11.42
2023-05-22T22:41:17.807Z,11.39
2023-05-22T22:43:20.892Z,11.43
2023-05-22T22:45:23.928Z,11.45
2023-05-22T22:47:28.296Z,11.43
2023-05-22T22:49:32.065Z,11.44
2023-05-22T22:51:35.057Z,11.41
2023-05-22T22:53:39.368Z,11.37
2023-05-22T22:55:42.656Z,11.17
2023-05-22T22:57:50.272Z,11.10
2023-05-22T22:59:53.549Z,10.94
2023-05-22T23:01:56.751Z,10.87
2023-05-22T23:03:59.829Z,10.97
2023-05-22T23:06:03.136Z,11.05
2023-05-22T23:08:06.288Z,11.08
2023-05-22T23:10:11.269Z,11.04
2023-05-22T23:12:14.251Z,10.95
2023-05-22T23:14:18.128Z,10.98
2023-05-22T23:16:23.286Z,11.02
2023-05-22T23:18:26.568Z,11.02
2023-05-22T23:20:29.687Z,11.01
2023-05-22T23:22:32.738Z,11.01
2023-05-22T23:24:35.799Z,10.93
2023-05-22T23:26:40.288Z,10.89
2023-05-22T23:28:43.193Z,10.91
2023-05-22T23:30:46.633Z,10.92
2023-05-22T23:32:49.602Z,10.78
2023-05-22T23:34:52.652Z,10.82
2023-05-22T23:36:55.734Z,10.77
2023-05-22T23:38:58.598Z,10.68
2023-05-22T23:41:01.904Z,10.66
2023-05-22T23:43:06.450Z,10.60
2023-05-22T23:45:09.615Z,10.59
2023-05-22T23:47:12.848Z,10.61
2023-05-22T23:49:16.306Z,10.62
2023-05-22T23:51:19.238Z,10.63
2023-05-22T23:53:22.168Z,10.62
2023-05-22T23:55:25.080Z,10.59
2023-05-22T23:57:28.187Z,10.56
2023-05-22T23:59:32.640Z,10.51
